Nearby METAR Reports

 

KRNT - Renton, Washington, USA
Distance from station: NNW 3mi, 4km
Updated: Tue, 16-Aug-2022 7:53am PDT
NOT Current
Overcast
Overcast
 Wind from S
Wind: S 5 mph , 7 km/h
Temperature: 63°F , 17°C
Dew Point: 57°F , 14°C
Humidity: 83%
Barometer: 30.10 inHg , 1019.3 hPa
Clouds: Overcast
Visibility: 9 miles , 14 km
Cloud details: Overcast 900 ft
2022/08/16 14:53 KRNT 161453Z 17004KT 9SM OVC009 17/14 A3010 RMK AO2 SLP197 T01670139 53004
KSEA - Seattle/Metro, Washington, USA
Distance from station: W 5mi, 9km
Updated: Tue, 16-Aug-2022 8:19am PDT
Mist, Overcast
Mist, Overcast
 Wind from varies
Wind: varies 3 mph , 6 km/h
Temperature: 59°F , 15°C
Dew Point: 57°F , 14°C
Humidity: 94%
Barometer: 30.11 inHg , 1019.6 hPa
Summary: Mist
Clouds: Overcast
Visibility: 1 1/2 miles , 2.4 km
Cloud details: Overcast 300 ft
2022/08/16 15:19 KSEA 161519Z VRB03KT 1 1/2SM BR OVC003 15/14 A3011 RMK AO2 T01500139
KBFI - Seattle/Boeing, Washington, USA
Distance from station: NW 8mi, 13km
Updated: Tue, 16-Aug-2022 7:53am PDT
NOT Current
Partly cloudy
Partly cloudy
 Wind from calm
Wind: Calm
Temperature: 63°F , 17°C
Dew Point: 57°F , 14°C
Humidity: 83%
Barometer: 30.10 inHg , 1019.3 hPa
Clouds: Partly cloudy
Visibility: 10 miles , 16 km
Cloud details: Partly cloudy 1100 ft
2022/08/16 14:53 KBFI 161453Z 00000KT 10SM SCT011 17/14 A3010 RMK AO2 SLP192 60000 T01720144 53010
 
KTIW - Tacoma, Washington, USA
Distance from station: SW 22mi, 36km
Updated: Tue, 16-Aug-2022 7:53am PDT
NOT Current
Overcast
Overcast
 Wind from WSW
Wind: WSW 3 mph , 6 km/h
Temperature: 61°F , 16°C
Dew Point: 57°F , 14°C
Humidity: 88%
Barometer: 30.11 inHg , 1019.6 hPa
Clouds: Overcast
Visibility: 10 miles , 16 km
Cloud details: Overcast 500 ft
2022/08/16 14:53 KTIW 161453Z 24003KT 10SM OVC005 16/14 A3011 RMK AO2 SLP192 T01560144 53009
KPLU - Puyallup/Thun, Washington, USA
Distance from station: S 25mi, 41km
Updated: Tue, 16-Aug-2022 7:35am PDT
NOT Current
Light drizzle, Overcast
Light drizzle, Overcast
 Wind from calm
Wind: Calm
Temperature: 59°F , 15°C
Dew Point: 59°F , 15°C
Humidity: 100%
Barometer: 30.11 inHg , 1019.6 hPa
Summary: Light Drizzle
Clouds: Overcast
Visibility: 10 miles , 16 km
Cloud details: Overcast 500 ft
2022/08/16 14:35 KPLU 161435Z AUTO 00000KT 10SM -DZ OVC005 15/15 A3011 RMK AO2
KPWT - Bremerton Ntnl, Washington, USA
Distance from station: W 26mi, 41km
Updated: Tue, 16-Aug-2022 7:56am PDT
NOT Current
Overcast
Overcast
 Wind from calm
Wind: Calm
Temperature: 59°F , 15°C
Dew Point: 59°F , 15°C
Humidity: 100%
Barometer: 30.11 inHg , 1019.6 hPa
Clouds: Overcast
Visibility: 10 miles , 16 km
Cloud details: Mostly cloudy 200 ft
Overcast 800 ft
2022/08/16 14:56 KPWT 161456Z AUTO 00000KT 10SM BKN002 OVC008 15/15 A3011 RMK AO2 SLP198 T01500150 51010
 
KTCM - Tacoma/Mc Chord, Washington, USA
Distance from station: SSW 27mi, 43km
Updated: Tue, 16-Aug-2022 6:58am PDT
NOT Current
Overcast
Overcast
 Wind from WNW
Wind: WNW 5 mph , 7 km/h
Temperature: 61°F , 16°C
Dew Point: 61°F , 16°C
Humidity: 100%
Barometer: 30.09 inHg , 1019 hPa
Clouds: Overcast
Visibility: 10 miles , 16 km
Cloud details: Overcast 700 ft
2022/08/16 13:58 KTCM 161358Z AUTO 29004KT 10SM OVC007 16/16 A3009 RMK AO2 SLP192 T01560156 $
KPAE - Everett, Washington, USA
Distance from station: N 32mi, 51km
Updated: Tue, 16-Aug-2022 7:53am PDT
NOT Current
Clear
Clear
 Wind from varies
Wind: varies 5 mph , 7 km/h
Temperature: 63°F , 17°C
Dew Point: 55°F , 13°C
Humidity: 77%
Barometer: 30.11 inHg , 1019.6 hPa
Clouds: Clear
Visibility: 10 miles , 16 km
2022/08/16 14:53 KPAE 161453Z VRB04KT 10SM CLR 17/13 A3011 RMK AO2 SLP194 T01720128 53009
KGRF - Fort Lewis/Gray, Washington, USA
Distance from station: SSW 32mi, 52km
Updated: Tue, 16-Aug-2022 6:58am PDT
NOT Current
Overcast
Overcast
 Wind from SW
Wind: SW 3 mph , 6 km/h
Temperature: 59°F , 15°C
Dew Point: 55°F , 13°C
Humidity: 88%
Barometer: 30.08 inHg , 1018.6 hPa
Clouds: Overcast
Visibility: 10 miles , 16 km
Cloud details: Overcast 800 ft
2022/08/16 13:58 KGRF 161358Z 23003KT 10SM OVC008 15/13 A3008 RMK AO2A SLP189 T01500130 $
 
KSMP - Stampede Pass, Washington, USA
Distance from station: ESE 42mi, 68km
Updated: Tue, 16-Aug-2022 7:56am PDT
NOT Current
Clear
Clear
 Wind from SW
Wind: SW 6 mph , 9 km/h
Temperature: 57°F , 14°C
Dew Point: 48°F , 9°C
Humidity: 72%
Barometer: 30.17 inHg , 1021.7 hPa
Clouds: Clear
Visibility: 10 miles , 16 km
2022/08/16 14:56 KSMP 161456Z AUTO 23005KT 10SM CLR 14/09 A3017 RMK AO2 SLP194 T01390094 53004
KSHN - Shelton, Washington, USA
Distance from station: WSW 46mi, 75km
Updated: Tue, 16-Aug-2022 7:53am PDT
NOT Current
Overcast
Overcast
 Wind from W
Wind: W 3 mph , 6 km/h
Temperature: 57°F , 14°C
Dew Point: 57°F , 14°C
Humidity: 100%
Barometer: 30.08 inHg , 1018.6 hPa
Clouds: Overcast
Visibility: 9 miles , 14 km
Cloud details: Overcast 300 ft
2022/08/16 14:53 KSHN 161453Z AUTO 28003KT 9SM OVC003 14/14 A3008 RMK AO2 SLP185 T01440139 53008
KOLM - Olympia, Washington, USA
Distance from station: SW 47mi, 76km
Updated: Tue, 16-Aug-2022 8:41am PDT
Mostly cloudy
Mostly cloudy
 Wind from calm
Wind: Calm
Temperature: 63°F , 17°C
Dew Point: 57°F , 14°C
Humidity: 83%
Barometer: 30.10 inHg , 1019.3 hPa
Clouds: Mostly cloudy
Visibility: 10 miles , 16 km
Cloud details: Mostly cloudy 1000 ft
2022/08/16 15:41 KOLM 161541Z 00000KT 10SM BKN010 17/14 A3010 RMK AO2 T01670139 $
 
KAWO - Arlington Muni, Washington, USA
Distance from station: N 49mi, 78km
Updated: Tue, 16-Aug-2022 6:56am PDT
NOT Current
Clear
Clear
 Wind from calm
Wind: Calm
Temperature: 57°F , 14°C
Dew Point: 55°F , 13°C
Humidity: 94%
Barometer: 30.10 inHg , 1019.3 hPa
Clouds: Clear
Visibility: 10 miles , 16 km
2022/08/16 13:56 KAWO 161356Z AUTO 00000KT 10SM CLR 14/13 A3010 RMK AO2 SLP197 T01390128